Terminal Aerodrome Forecast
Issued by NWS

Home | Current Version | Previous Version | Text Only | Print | Product List | Glossary On
Versions: 1 2 3 4 5 6 7 8 9 10 11 12
000
FTUS42 TJSJ 261100
TAFKPK
TAF
TKPK 261129Z 2612/2712 05014KT P6SM VCSH SCT019
      TEMPO 2612/2614 -SHRA BKN018
     FM261500 06017KT P6SM SCT018
     FM262300 05010KT P6SM FEW018
      AMD NOT SKED 2702/2711=

USA.gov is the U.S. government's official web portal to all federal, state and local government web resources and services.